createdAt,value
2022-10-25T00:08:07.362Z,12.33
2022-10-25T00:18:09.293Z,12.26
2022-10-25T00:28:11.513Z,12.23
2022-10-25T00:38:13.444Z,12.25
2022-10-25T00:48:16.918Z,12.29
2022-10-25T00:58:24.209Z,12.22
2022-10-25T01:08:26.934Z,12.30
2022-10-25T01:18:47.659Z,12.42
2022-10-25T01:28:55.890Z,12.47
2022-10-25T01:39:03.080Z,12.39
2022-10-25T01:49:09.107Z,12.43
2022-10-25T01:59:28.978Z,12.50
2022-10-25T02:09:48.084Z,12.47
2022-10-25T02:19:55.382Z,12.45
2022-10-25T02:29:59.031Z,12.54
2022-10-25T02:40:01.574Z,12.63
2022-10-25T02:50:04.518Z,12.64
2022-10-25T03:00:07.705Z,12.64
2022-10-25T03:10:09.913Z,12.61
2022-10-25T03:20:11.979Z,12.55
2022-10-25T03:30:15.217Z,12.58
2022-10-25T03:40:18.483Z,12.47
2022-10-25T03:50:20.450Z,12.11
2022-10-25T04:00:22.516Z,11.90
2022-10-25T04:10:26.006Z,12.07
2022-10-25T04:20:28.311Z,12.27
2022-10-25T04:30:32.832Z,12.44
2022-10-25T04:40:37.266Z,12.59
2022-10-25T04:50:39.277Z,12.72
2022-10-25T05:00:41.306Z,12.49
2022-10-25T05:10:43.230Z,12.35
2022-10-25T05:20:52.609Z,12.37
2022-10-25T05:30:54.811Z,12.52
2022-10-25T06:01:42.080Z,12.83
2022-10-25T06:11:44.112Z,13.01
2022-10-25T06:21:47.071Z,13.28
2022-10-25T06:31:49.783Z,13.46
2022-10-25T06:41:51.718Z,13.74
2022-10-25T06:51:54.021Z,14.04
2022-10-25T07:01:57.469Z,14.27
2022-10-25T07:11:59.471Z,14.39
2022-10-25T07:22:01.426Z,15.02
2022-10-25T07:32:03.660Z,15.56
2022-10-25T07:42:05.728Z,15.85
2022-10-25T07:52:14.801Z,15.90
2022-10-25T08:02:17.201Z,16.13
2022-10-25T08:12:22.552Z,16.40
2022-10-25T08:22:24.714Z,16.68
2022-10-25T08:32:26.897Z,17.58
2022-10-25T08:42:39.641Z,18.25
2022-10-25T08:52:56.918Z,18.19
2022-10-25T09:03:01.211Z,18.73
2022-10-25T09:13:11.373Z,18.70
2022-10-25T09:23:19.450Z,18.39
2022-10-25T09:33:28.516Z,17.94
2022-10-25T09:43:43.041Z,17.50
2022-10-25T09:53:46.626Z,16.97
2022-10-25T10:03:53.103Z,17.04
2022-10-25T10:14:13.608Z,17.28
2022-10-25T10:24:23.048Z,17.44
2022-10-25T10:34:37.050Z,17.32
2022-10-25T10:44:39.927Z,17.15
2022-10-25T10:54:48.137Z,17.39
2022-10-25T11:04:52.706Z,17.76
2022-10-25T11:14:56.016Z,18.03
2022-10-25T11:25:13.448Z,17.79
2022-10-25T11:35:33.868Z,17.68
2022-10-25T11:45:39.525Z,18.04
2022-10-25T11:55:55.817Z,18.69
2022-10-25T12:06:39.049Z,19.17
2022-10-25T12:16:41.980Z,19.51
2022-10-25T12:26:53.182Z,19.82
2022-10-25T12:37:04.861Z,19.36
2022-10-25T12:47:20.298Z,18.79
2022-10-25T12:57:54.129Z,18.77
2022-10-25T13:08:03.218Z,18.74
2022-10-25T13:18:25.260Z,18.57
2022-10-25T13:28:35.930Z,18.41
2022-10-25T13:38:39.872Z,18.31
2022-10-25T13:48:42.372Z,18.07
2022-10-25T13:58:44.234Z,17.82
2022-10-25T14:09:14.197Z,17.78
2022-10-25T14:19:21.963Z,17.75
2022-10-25T14:29:27.689Z,17.56
2022-10-25T14:39:30.844Z,16.81
2022-10-25T14:49:32.821Z,16.14
2022-10-25T14:59:46.247Z,15.93
2022-10-25T15:09:53.441Z,15.51
2022-10-25T15:20:07.497Z,15.03
2022-10-25T15:30:36.086Z,14.79
2022-10-25T15:40:39.095Z,14.75
2022-10-25T15:50:51.403Z,14.66
2022-10-25T16:00:54.404Z,14.50
2022-10-25T16:10:58.740Z,14.43
2022-10-25T16:21:00.815Z,14.35
2022-10-25T16:31:03.888Z,14.16
2022-10-25T16:41:06.253Z,14.00
2022-10-25T16:51:13.109Z,14.01
2022-10-25T17:01:29.167Z,14.10
2022-10-25T17:11:31.375Z,14.13
2022-10-25T17:21:36.000Z,14.00
2022-10-25T17:31:38.141Z,13.85
2022-10-25T17:41:40.448Z,13.88
2022-10-25T17:51:44.083Z,14.00
2022-10-25T18:01:47.324Z,14.04
2022-10-25T18:11:49.479Z,13.95
2022-10-25T18:21:51.525Z,13.76
2022-10-25T18:31:53.698Z,13.72
2022-10-25T18:41:55.949Z,13.79
2022-10-25T18:51:59.374Z,13.81
2022-10-25T19:02:01.670Z,13.59
2022-10-25T19:12:04.180Z,13.38
2022-10-25T19:22:06.345Z,13.24
2022-10-25T19:32:08.798Z,13.06
2022-10-25T19:42:11.753Z,13.00
2022-10-25T19:52:13.974Z,13.02
2022-10-25T20:02:16.123Z,13.02
2022-10-25T20:12:18.483Z,12.89
2022-10-25T20:22:20.571Z,12.90
2022-10-25T20:32:22.691Z,13.00
2022-10-25T20:42:24.828Z,13.06
2022-10-25T20:52:26.826Z,12.97
2022-10-25T21:02:28.871Z,12.79
2022-10-25T21:12:31.312Z,12.74
2022-10-25T21:22:33.458Z,12.76
2022-10-25T21:32:36.021Z,12.80
2022-10-25T21:42:38.382Z,12.74
2022-10-25T21:52:43.280Z,12.75
2022-10-25T22:02:45.417Z,12.77
2022-10-25T22:12:49.156Z,12.79
2022-10-25T22:22:51.436Z,12.72
2022-10-25T22:32:53.696Z,12.69
2022-10-25T22:42:56.099Z,12.68
2022-10-25T22:52:57.985Z,12.61
2022-10-25T23:02:59.921Z,12.39
2022-10-25T23:13:01.943Z,12.19
2022-10-25T23:23:03.871Z,12.10
2022-10-25T23:33:06.740Z,11.91
2022-10-25T23:43:08.794Z,11.81
2022-10-25T23:53:10.824Z,11.83
